Longford, Kansas
Current Conditions -  °F | °C
As of 7:43 PM on Friday 19 Dec 2014 (Local Time) from KSLN Reporting Station
Haze Haze  
Wind Chill: 26°   Ceiling: Unl
Heat Index: 33°   Visibility: 6mi
Dew Point: 30°   Wind: 8mph
Humidity: 89%   Direction: 160°SSE
Pressure: 30.15"   Gusts: NA
Location:  39.17°N, 97.33°W
Report Text: KSLN 200143Z 16007KT 6SM BR SCT019 01/M01 A3015 RMK AO2 T00061011
Loading
Personal Weather Stations






























Interactive Weather Map New forecast layout! Learn more

10-Day Weather Forecast

Advertisements
Track Severe Weather on mobile